createdAt,value
2018-12-17T00:00:22.673Z,111.07
2018-12-17T00:02:50.407Z,109.47
2018-12-17T00:05:18.130Z,101.67
2018-12-17T00:07:45.945Z,97.73
2018-12-17T00:10:13.623Z,97.57
2018-12-17T00:12:41.303Z,96.63
2018-12-17T00:15:09.235Z,100.40
2018-12-17T00:17:36.945Z,89.70
2018-12-17T00:20:11.367Z,88.90
2018-12-17T00:22:39.079Z,83.60
2018-12-17T00:25:06.914Z,81.67
2018-12-17T00:27:34.610Z,87.13
2018-12-17T00:30:02.376Z,77.40
2018-12-17T00:32:30.066Z,84.17
2018-12-17T00:34:57.990Z,80.23
2018-12-17T00:37:25.681Z,83.60
2018-12-17T00:39:53.360Z,83.07
2018-12-17T00:42:21.070Z,88.43
2018-12-17T00:44:48.784Z,73.03
2018-12-17T00:47:16.492Z,76.63
2018-12-17T00:49:44.208Z,80.77
2018-12-17T00:52:11.878Z,89.40
2018-12-17T00:54:39.618Z,79.20
2018-12-17T00:57:07.354Z,79.77
2018-12-17T00:59:35.232Z,86.97
2018-12-17T01:02:02.931Z,91.50
2018-12-17T01:04:30.776Z,84.57
2018-12-17T01:06:58.446Z,90.43
2018-12-17T01:09:26.524Z,83.17
2018-12-17T01:11:54.231Z,87.10
2018-12-17T01:14:21.876Z,76.77
2018-12-17T01:16:49.661Z,76.13
2018-12-17T01:19:17.357Z,89.50
2018-12-17T01:21:45.183Z,76.07
2018-12-17T01:24:12.854Z,67.10
2018-12-17T01:26:40.573Z,78.13
2018-12-17T01:29:08.265Z,76.63
2018-12-17T01:31:35.935Z,83.70
2018-12-17T01:34:03.615Z,79.27
2018-12-17T01:36:31.374Z,88.90
2018-12-17T01:38:59.133Z,85.27
2018-12-17T01:41:26.787Z,90.63
2018-12-17T01:43:54.483Z,102.63
2018-12-17T01:46:22.112Z,110.57
2018-12-17T01:48:49.813Z,92.00
2018-12-17T01:51:17.613Z,89.33
2018-12-17T01:53:45.283Z,79.27
2018-12-17T01:56:12.981Z,80.80
2018-12-17T01:58:40.799Z,65.13
2018-12-17T02:01:08.513Z,72.97
2018-12-17T02:03:36.279Z,74.60
2018-12-17T02:06:03.969Z,67.17
2018-12-17T02:08:32.129Z,64.77
2018-12-17T02:10:59.859Z,69.17
2018-12-17T02:13:27.527Z,61.70
2018-12-17T02:15:55.189Z,72.03
2018-12-17T02:18:22.893Z,70.13
2018-12-17T02:20:50.544Z,65.33
2018-12-17T02:23:18.219Z,68.70
2018-12-17T02:25:45.957Z,70.87
2018-12-17T02:28:13.637Z,62.30
2018-12-17T02:30:41.280Z,66.77
2018-12-17T02:33:09.003Z,58.50
2018-12-17T02:35:36.687Z,65.67
2018-12-17T02:38:04.380Z,61.43
2018-12-17T02:40:32.097Z,67.93
2018-12-17T02:42:59.807Z,61.67
2018-12-17T02:45:27.489Z,72.37
2018-12-17T02:47:55.301Z,60.83
2018-12-17T02:50:23.042Z,58.83
2018-12-17T02:52:50.745Z,64.50
2018-12-17T02:55:18.400Z,67.23
2018-12-17T02:57:46.148Z,65.63
2018-12-17T03:00:13.856Z,68.53
2018-12-17T03:02:41.534Z,65.60
2018-12-17T03:05:09.476Z,70.43
2018-12-17T03:07:37.152Z,62.53
2018-12-17T03:10:05.395Z,66.97
2018-12-17T03:12:33.124Z,72.73
2018-12-17T03:15:00.777Z,68.63
2018-12-17T03:17:28.458Z,70.17
2018-12-17T03:19:56.089Z,85.20
2018-12-17T03:22:23.751Z,73.77
2018-12-17T03:24:51.467Z,69.73
2018-12-17T03:27:19.164Z,78.33
2018-12-17T03:29:46.803Z,78.97
2018-12-17T03:32:14.505Z,75.00
2018-12-17T03:34:42.166Z,76.10
2018-12-17T03:37:09.861Z,68.20
2018-12-17T03:39:37.615Z,69.53
2018-12-17T03:42:05.283Z,73.13
2018-12-17T03:44:33.939Z,57.97
2018-12-17T03:47:01.658Z,72.40
2018-12-17T03:49:29.348Z,67.47
2018-12-17T03:51:57.026Z,71.00
2018-12-17T03:54:24.673Z,72.83
2018-12-17T03:56:52.353Z,92.30
2018-12-17T03:59:20.024Z,84.13
2018-12-17T04:01:47.679Z,72.40
2018-12-17T04:04:15.418Z,71.90
2018-12-17T04:06:43.120Z,74.87
2018-12-17T04:09:10.773Z,82.10
2018-12-17T04:11:38.537Z,78.20
2018-12-17T04:14:06.201Z,76.63
2018-12-17T04:16:33.865Z,82.03
2018-12-17T04:19:01.533Z,73.40
2018-12-17T04:21:29.233Z,72.17
2018-12-17T04:23:56.886Z,85.80
2018-12-17T04:26:24.555Z,75.93
2018-12-17T04:28:52.228Z,77.07
2018-12-17T04:31:19.915Z,78.00
2018-12-17T04:33:47.578Z,79.23
2018-12-17T04:36:15.274Z,77.37
2018-12-17T04:38:42.948Z,77.40
2018-12-17T04:41:10.603Z,74.70
2018-12-17T04:43:38.267Z,84.53
2018-12-17T04:46:07.209Z,83.77
2018-12-17T04:48:34.998Z,78.00
2018-12-17T04:51:02.954Z,73.83
2018-12-17T04:53:30.605Z,79.67
2018-12-17T04:55:58.241Z,77.83
2018-12-17T04:58:25.948Z,95.73
2018-12-17T05:00:53.613Z,73.53
2018-12-17T05:03:21.243Z,78.57
2018-12-17T05:05:48.929Z,82.80
2018-12-17T05:08:16.594Z,77.20
2018-12-17T05:10:44.274Z,83.63
2018-12-17T05:13:12.029Z,79.53
2018-12-17T05:15:39.696Z,83.03
2018-12-17T05:18:07.337Z,84.17
2018-12-17T05:20:35.052Z,89.70
2018-12-17T05:23:02.740Z,83.73
2018-12-17T05:25:30.469Z,87.53
2018-12-17T05:27:58.164Z,92.30
2018-12-17T05:30:25.852Z,85.53
2018-12-17T05:32:53.536Z,90.00
2018-12-17T05:35:21.253Z,92.50
2018-12-17T05:37:55.513Z,89.40
2018-12-17T05:40:23.232Z,99.57
2018-12-17T05:42:50.954Z,107.93
2018-12-17T05:45:18.615Z,110.37
2018-12-17T05:47:46.291Z,118.57
2018-12-17T05:50:13.958Z,112.70
2018-12-17T05:52:41.675Z,126.00
2018-12-17T05:55:09.396Z,119.80
2018-12-17T05:57:37.016Z,128.23
2018-12-17T06:00:06.180Z,142.53
2018-12-17T06:02:33.857Z,173.53
2018-12-17T06:05:01.722Z,159.13
2018-12-17T06:07:29.450Z,169.93
2018-12-17T06:09:57.199Z,161.57
2018-12-17T06:12:24.872Z,171.03
2018-12-17T06:14:52.576Z,170.33
2018-12-17T06:17:20.292Z,173.60
2018-12-17T06:19:48.012Z,155.77
2018-12-17T06:22:15.803Z,149.20
2018-12-17T06:24:43.622Z,116.03
2018-12-17T06:27:11.305Z,107.63
2018-12-17T06:29:39.041Z,86.03
2018-12-17T06:32:06.780Z,93.43
2018-12-17T06:34:34.453Z,147.93
2018-12-17T06:37:02.200Z,154.70
2018-12-17T06:39:29.912Z,149.30
2018-12-17T06:41:57.690Z,132.07
2018-12-17T06:44:25.369Z,145.43
2018-12-17T06:46:53.115Z,139.53
2018-12-17T06:49:20.916Z,132.40
2018-12-17T06:51:48.740Z,127.83
2018-12-17T06:54:16.502Z,142.73
2018-12-17T06:56:44.249Z,141.50
2018-12-17T06:59:11.948Z,142.53
2018-12-17T07:01:39.817Z,147.77
2018-12-17T07:04:07.583Z,156.37
2018-12-17T07:06:35.300Z,124.87
2018-12-17T07:09:04.696Z,117.87
2018-12-17T07:11:32.415Z,106.03
2018-12-17T07:14:00.231Z,91.23
2018-12-17T07:16:28.148Z,81.07
2018-12-17T07:18:58.117Z,77.13
2018-12-17T07:21:25.872Z,80.47
2018-12-17T07:23:53.617Z,98.10
2018-12-17T07:26:21.298Z,92.87
2018-12-17T07:28:48.998Z,81.37
2018-12-17T07:31:16.742Z,73.83
2018-12-17T07:33:44.461Z,68.97
2018-12-17T07:36:12.100Z,72.90
2018-12-17T07:38:39.801Z,77.03
2018-12-17T07:41:07.492Z,74.33
2018-12-17T07:43:35.326Z,69.10
2018-12-17T07:46:03.150Z,74.67
2018-12-17T07:48:30.901Z,77.20
2018-12-17T07:50:58.657Z,77.63
2018-12-17T07:53:26.380Z,108.83
2018-12-17T07:55:54.059Z,112.00
2018-12-17T07:58:21.785Z,103.77
2018-12-17T08:00:49.529Z,76.73
2018-12-17T08:03:17.215Z,75.13
2018-12-17T08:05:45.008Z,74.90
2018-12-17T08:08:12.756Z,89.07
2018-12-17T08:10:40.510Z,78.93
2018-12-17T08:13:11.898Z,81.07
2018-12-17T08:15:39.611Z,86.27
2018-12-17T08:18:18.527Z,92.77
2018-12-17T08:20:46.358Z,85.00
2018-12-17T08:23:14.135Z,92.87
2018-12-17T08:25:41.850Z,98.37
2018-12-17T08:28:09.597Z,92.30
2018-12-17T08:30:37.370Z,87.83
2018-12-17T08:33:05.092Z,100.10
2018-12-17T08:35:32.848Z,109.87
2018-12-17T08:38:00.602Z,107.40
2018-12-17T08:40:28.309Z,86.70
2018-12-17T08:42:56.054Z,93.67
2018-12-17T08:45:23.753Z,116.27
2018-12-17T08:47:51.493Z,105.17
2018-12-17T08:50:19.370Z,96.43
2018-12-17T08:52:47.094Z,98.80
2018-12-17T08:55:14.792Z,106.97
2018-12-17T08:57:42.502Z,110.50
2018-12-17T09:00:11.219Z,105.97
2018-12-17T09:02:39.285Z,105.33
2018-12-17T09:05:07.121Z,99.17
2018-12-17T09:07:34.938Z,105.03
2018-12-17T09:10:03.153Z,111.47
2018-12-17T09:12:30.903Z,136.30
2018-12-17T09:14:58.577Z,137.70
2018-12-17T09:17:26.293Z,127.27
2018-12-17T09:19:54.001Z,123.73
2018-12-17T09:22:21.681Z,151.67
2018-12-17T09:24:49.370Z,120.00
2018-12-17T09:27:17.057Z,163.80
2018-12-17T09:29:44.741Z,152.40
2018-12-17T09:32:12.461Z,188.63
2018-12-17T09:34:40.154Z,153.93
2018-12-17T09:37:07.835Z,116.27
2018-12-17T09:39:35.679Z,92.97
2018-12-17T09:42:03.568Z,97.63
2018-12-17T09:44:31.413Z,111.03
2018-12-17T09:46:59.099Z,110.03
2018-12-17T09:49:26.955Z,109.40
2018-12-17T09:51:54.635Z,103.90
2018-12-17T09:54:22.369Z,105.77
2018-12-17T09:56:50.071Z,145.87
2018-12-17T09:59:17.785Z,119.53
2018-12-17T10:01:47.561Z,106.87
2018-12-17T10:04:15.290Z,103.23
2018-12-17T10:06:42.958Z,117.30
2018-12-17T10:09:10.699Z,121.37
2018-12-17T10:11:38.404Z,106.70
2018-12-17T10:14:06.103Z,122.73
2018-12-17T10:16:33.947Z,106.53
2018-12-17T10:19:01.729Z,101.93
2018-12-17T10:21:29.375Z,99.37
2018-12-17T10:23:57.183Z,98.20
2018-12-17T10:26:24.937Z,100.03
2018-12-17T10:28:52.605Z,91.00
2018-12-17T10:31:20.238Z,100.50
2018-12-17T10:33:47.896Z,98.43
2018-12-17T10:36:15.541Z,100.33
2018-12-17T10:38:43.189Z,104.33
2018-12-17T10:41:10.875Z,99.53
2018-12-17T10:43:38.495Z,94.47
2018-12-17T10:46:06.135Z,94.60
2018-12-17T10:48:33.872Z,99.57
2018-12-17T10:51:01.557Z,108.70
2018-12-17T10:53:29.204Z,95.77
2018-12-17T10:55:56.917Z,95.90
2018-12-17T10:58:24.595Z,88.13
2018-12-17T11:01:58.675Z,94.53
2018-12-17T11:04:32.519Z,92.63
2018-12-17T11:07:00.348Z,98.33
2018-12-17T11:09:28.016Z,99.17
2018-12-17T11:11:56.423Z,104.30
2018-12-17T11:14:24.303Z,119.70
2018-12-17T11:16:52.030Z,112.77
2018-12-17T11:19:19.673Z,113.07
2018-12-17T11:21:47.347Z,98.97
2018-12-17T11:24:15.066Z,99.10
2018-12-17T11:26:42.778Z,77.80
2018-12-17T11:29:10.514Z,91.57
2018-12-17T11:31:38.281Z,88.47
2018-12-17T11:34:06.018Z,98.03
2018-12-17T11:36:33.732Z,86.90
2018-12-17T11:39:01.530Z,84.63
2018-12-17T11:41:29.183Z,90.87
2018-12-17T11:43:56.911Z,88.63
2018-12-17T11:46:24.666Z,84.57
2018-12-17T11:48:52.372Z,89.63
2018-12-17T11:51:21.434Z,94.97
2018-12-17T11:53:49.104Z,85.13
2018-12-17T11:56:16.900Z,92.63
2018-12-17T11:58:44.592Z,88.77
2018-12-17T12:01:12.718Z,85.70
2018-12-17T12:03:42.244Z,75.60
2018-12-17T12:06:13.928Z,80.80
2018-12-17T12:08:39.654Z,82.23
2018-12-17T12:11:07.600Z,79.87
2018-12-17T12:13:35.316Z,86.33
2018-12-17T12:16:03.128Z,85.43
2018-12-17T12:18:30.872Z,77.87
2018-12-17T12:20:58.578Z,75.10
2018-12-17T12:23:26.280Z,71.63
2018-12-17T12:25:53.941Z,70.40
2018-12-17T12:28:21.608Z,86.60
2018-12-17T12:30:49.337Z,77.43
2018-12-17T12:33:17.095Z,81.43
2018-12-17T12:35:44.824Z,74.57
2018-12-17T12:38:12.538Z,78.70
2018-12-17T12:40:40.238Z,73.07
2018-12-17T12:43:08.112Z,82.67
2018-12-17T12:45:36.514Z,69.73
2018-12-17T12:48:04.633Z,70.67
2018-12-17T12:50:32.384Z,83.13
2018-12-17T12:53:00.159Z,76.33
2018-12-17T12:55:27.946Z,78.63
2018-12-17T12:57:55.878Z,86.90
2018-12-17T13:00:23.594Z,82.80
2018-12-17T13:02:51.312Z,80.80
2018-12-17T13:05:19.150Z,90.73
2018-12-17T13:07:46.933Z,96.20
2018-12-17T13:10:14.652Z,89.60
2018-12-17T13:12:42.352Z,82.17
2018-12-17T13:15:10.273Z,92.23
2018-12-17T13:17:37.978Z,85.83
2018-12-17T13:20:07.332Z,92.20
2018-12-17T13:22:35.086Z,93.60
2018-12-17T13:25:03.766Z,86.47
2018-12-17T13:27:31.592Z,83.73
2018-12-17T13:30:00.528Z,90.53
2018-12-17T13:32:28.215Z,87.80
2018-12-17T13:34:55.902Z,82.90
2018-12-17T13:37:23.626Z,71.13
2018-12-17T13:39:51.328Z,82.50
2018-12-17T13:42:19.032Z,77.70
2018-12-17T13:44:46.978Z,80.90
2018-12-17T13:47:21.185Z,90.03
2018-12-17T13:49:48.964Z,76.80
2018-12-17T13:52:23.364Z,80.53
2018-12-17T13:54:51.152Z,84.60
2018-12-17T13:57:18.852Z,71.70
2018-12-17T14:10:54.315Z,68.87
2018-12-17T14:13:22.586Z,69.20
2018-12-17T14:15:51.648Z,71.33
2018-12-17T14:18:25.404Z,87.33
2018-12-17T14:20:58.930Z,78.53
2018-12-17T14:23:26.665Z,79.60
2018-12-17T14:25:54.506Z,101.13
2018-12-17T14:28:22.292Z,116.00
2018-12-17T14:30:49.988Z,126.50
2018-12-17T14:33:17.707Z,126.77
2018-12-17T14:35:50.949Z,198.30
2018-12-17T14:38:19.160Z,119.67
2018-12-17T14:40:47.001Z,171.60
2018-12-17T14:43:16.296Z,117.77
2018-12-17T14:45:43.962Z,141.27
2018-12-17T14:48:11.643Z,206.13
2018-12-17T14:50:39.471Z,225.40
2018-12-17T14:53:07.166Z,193.60
2018-12-17T14:55:34.997Z,152.23
2018-12-17T14:58:02.847Z,194.43
2018-12-17T15:00:30.568Z,154.77
2018-12-17T15:02:58.338Z,118.27
2018-12-17T15:05:26.095Z,99.33
2018-12-17T15:07:53.751Z,76.50
2018-12-17T15:10:21.422Z,82.80
2018-12-17T15:12:49.128Z,82.77
2018-12-17T15:15:16.901Z,85.70
2018-12-17T15:17:44.595Z,86.83
2018-12-17T15:20:13.199Z,168.63
2018-12-17T15:22:40.913Z,216.43
2018-12-17T15:25:09.014Z,299.30
2018-12-17T15:27:36.797Z,227.97
2018-12-17T15:30:05.334Z,208.13
2018-12-17T15:32:33.010Z,191.57
2018-12-17T15:35:00.863Z,179.97
2018-12-17T15:37:28.561Z,134.00
2018-12-17T15:39:56.233Z,96.07
2018-12-17T15:42:23.975Z,82.37
2018-12-17T15:44:51.678Z,76.73
2018-12-17T15:47:19.365Z,75.33
2018-12-17T15:49:47.122Z,82.57
2018-12-17T15:52:14.880Z,79.60
2018-12-17T15:54:42.552Z,83.30
2018-12-17T15:57:10.230Z,83.70
2018-12-17T15:59:39.519Z,94.30
2018-12-17T16:02:07.379Z,72.95
2018-12-17T16:04:35.065Z,79.70
2018-12-17T16:07:02.803Z,85.77
2018-12-17T16:09:30.447Z,82.67
2018-12-17T16:11:58.202Z,81.77
2018-12-17T16:14:26.086Z,98.73
2018-12-17T16:16:53.864Z,96.73
2018-12-17T16:19:21.524Z,98.97
2018-12-17T16:21:49.373Z,100.27
2018-12-17T16:24:17.038Z,100.43
2018-12-17T16:26:44.756Z,110.57
2018-12-17T16:29:12.464Z,142.60
2018-12-17T16:31:40.118Z,135.57
2018-12-17T16:34:07.902Z,110.40
2018-12-17T16:36:35.826Z,150.67
2018-12-17T16:39:05.348Z,151.50
2018-12-17T16:41:33.044Z,169.70
2018-12-17T16:44:00.794Z,170.67
2018-12-17T16:46:28.479Z,224.83
2018-12-17T16:48:56.179Z,160.87
2018-12-17T16:51:23.850Z,152.53
2018-12-17T16:53:51.507Z,156.63
2018-12-17T16:56:19.260Z,155.87
2018-12-17T16:58:46.935Z,152.00
2018-12-17T17:01:14.659Z,165.67
2018-12-17T17:03:42.394Z,158.87
2018-12-17T17:06:10.038Z,159.30
2018-12-17T17:11:21.450Z,173.23
2018-12-17T17:13:49.147Z,149.70
2018-12-17T17:16:16.874Z,147.70
2018-12-17T17:18:44.630Z,152.20
2018-12-17T17:21:12.310Z,144.70
2018-12-17T17:23:39.958Z,149.93
2018-12-17T17:26:07.635Z,168.10
2018-12-17T17:28:35.332Z,181.10
2018-12-17T17:31:03.086Z,187.53
2018-12-17T17:33:30.768Z,167.23
2018-12-17T17:35:58.562Z,158.90
2018-12-17T17:38:26.246Z,170.03
2018-12-17T17:40:54.094Z,161.50
2018-12-17T17:43:21.822Z,180.27
2018-12-17T17:45:49.542Z,187.73
2018-12-17T17:48:17.360Z,165.73
2018-12-17T17:50:45.128Z,159.80
2018-12-17T17:53:12.786Z,163.87
2018-12-17T17:55:40.521Z,158.27
2018-12-17T17:58:08.367Z,156.80
2018-12-17T18:00:36.097Z,166.77
2018-12-17T18:03:04.779Z,172.90
2018-12-17T18:05:32.497Z,180.57
2018-12-17T18:08:00.190Z,175.27
2018-12-17T18:10:27.894Z,184.70
2018-12-17T18:12:55.600Z,223.30
2018-12-17T18:15:23.322Z,168.33
2018-12-17T18:17:51.050Z,177.37
2018-12-17T18:20:18.746Z,157.20
2018-12-17T18:22:46.479Z,171.20
2018-12-17T18:25:14.205Z,168.37
2018-12-17T18:27:41.952Z,178.93
2018-12-17T18:30:09.818Z,171.23
2018-12-17T18:32:37.529Z,158.77
2018-12-17T18:35:05.534Z,165.73
2018-12-17T18:37:33.244Z,155.47
2018-12-17T18:40:00.992Z,176.40
2018-12-17T18:42:28.772Z,160.30
2018-12-17T18:44:56.512Z,166.33
2018-12-17T18:47:25.880Z,172.13
2018-12-17T18:49:54.058Z,175.00
2018-12-17T18:52:21.881Z,224.83
2018-12-17T18:54:49.636Z,187.57
2018-12-17T18:57:17.376Z,202.43
2018-12-17T18:59:45.098Z,197.40
2018-12-17T19:02:12.842Z,204.27
2018-12-17T19:04:40.618Z,179.10
2018-12-17T19:07:08.334Z,176.23
2018-12-17T19:09:36.078Z,216.77
2018-12-17T19:12:03.932Z,201.43
2018-12-17T19:14:31.648Z,183.83
2018-12-17T19:16:59.456Z,198.77
2018-12-17T19:19:27.202Z,216.67
2018-12-17T19:21:54.966Z,182.50
2018-12-17T19:24:22.915Z,237.30
2018-12-17T19:26:50.614Z,192.57
2018-12-17T19:29:18.366Z,206.93
2018-12-17T19:31:46.057Z,227.03
2018-12-17T19:34:13.785Z,232.70
2018-12-17T19:36:41.638Z,247.70
2018-12-17T19:39:09.438Z,256.43
2018-12-17T19:41:37.328Z,291.03
2018-12-17T19:44:05.239Z,276.47
2018-12-17T19:46:32.946Z,276.63
2018-12-17T19:49:00.624Z,270.83
2018-12-17T19:51:28.341Z,252.87
2018-12-17T19:53:56.214Z,265.13
2018-12-17T19:56:27.345Z,261.17
2018-12-17T19:58:55.094Z,269.37
2018-12-17T20:01:22.864Z,307.00
2018-12-17T20:03:50.569Z,352.17
2018-12-17T20:06:18.254Z,383.13
2018-12-17T20:08:45.977Z,345.43
2018-12-17T20:11:13.670Z,337.87
2018-12-17T20:13:41.359Z,341.50
2018-12-17T20:16:09.280Z,355.03
2018-12-17T20:18:37.050Z,337.07
2018-12-17T20:21:04.872Z,369.87
2018-12-17T20:23:32.634Z,355.43
2018-12-17T20:26:00.369Z,364.10
2018-12-17T20:28:28.110Z,371.67
2018-12-17T20:30:55.850Z,352.63
2018-12-17T20:33:23.533Z,288.37
2018-12-17T20:35:51.214Z,307.90
2018-12-17T20:38:18.987Z,288.00
2018-12-17T20:40:46.723Z,296.73
2018-12-17T20:43:14.456Z,307.60
2018-12-17T20:45:42.229Z,315.03
2018-12-17T20:48:09.974Z,328.63
2018-12-17T20:50:37.713Z,297.03
2018-12-17T20:53:05.475Z,312.23
2018-12-17T20:55:33.218Z,303.80
2018-12-17T20:58:00.991Z,302.43
2018-12-17T21:00:29.038Z,314.33
2018-12-17T21:03:00.274Z,313.57
2018-12-17T21:05:26.502Z,336.33
2018-12-17T21:07:54.232Z,321.43
2018-12-17T21:10:21.966Z,334.60
2018-12-17T21:12:49.652Z,304.37
2018-12-17T21:15:17.377Z,322.90
2018-12-17T21:17:45.070Z,346.87
2018-12-17T21:20:12.789Z,397.00
2018-12-17T21:22:40.534Z,373.70
2018-12-17T21:25:08.367Z,431.00
2018-12-17T21:27:36.062Z,366.60
2018-12-17T21:30:04.582Z,345.63
2018-12-17T21:32:32.272Z,362.37
2018-12-17T21:35:00.012Z,348.90
2018-12-17T21:37:27.743Z,350.17
2018-12-17T21:39:55.422Z,344.37
2018-12-17T21:42:23.160Z,346.53
2018-12-17T21:44:50.848Z,386.67
2018-12-17T21:47:18.536Z,368.17
2018-12-17T21:49:46.260Z,342.63
2018-12-17T21:52:13.978Z,322.97
2018-12-17T21:54:41.692Z,384.73
2018-12-17T21:57:09.432Z,321.67
2018-12-17T21:59:37.101Z,360.90
2018-12-17T22:02:04.909Z,339.10
2018-12-17T22:04:32.633Z,340.97
2018-12-17T22:07:00.380Z,324.43
2018-12-17T22:09:28.023Z,345.30
2018-12-17T22:11:55.701Z,324.53
2018-12-17T22:14:23.561Z,298.13
2018-12-17T22:16:51.261Z,322.50
2018-12-17T22:19:18.937Z,377.70
2018-12-17T22:21:46.991Z,429.07
2018-12-17T22:24:14.705Z,407.17
2018-12-17T22:26:42.413Z,404.83
2018-12-17T22:29:10.118Z,404.20
2018-12-17T22:31:37.795Z,383.40
2018-12-17T22:34:05.490Z,397.20
2018-12-17T22:36:33.181Z,399.17
2018-12-17T22:39:00.884Z,334.70
2018-12-17T22:41:28.765Z,316.33
2018-12-17T22:43:56.497Z,299.63
2018-12-17T22:46:24.215Z,324.30
2018-12-17T22:48:52.012Z,349.77
2018-12-17T22:51:19.826Z,360.23
2018-12-17T22:53:47.508Z,345.90
2018-12-17T22:56:15.228Z,365.50
2018-12-17T22:58:42.942Z,344.97
2018-12-17T23:01:10.888Z,331.83
2018-12-17T23:03:38.569Z,343.37
2018-12-17T23:06:06.351Z,350.27
2018-12-17T23:08:34.450Z,340.87
2018-12-17T23:11:13.606Z,356.63
2018-12-17T23:13:52.587Z,383.83
2018-12-17T23:16:31.392Z,444.93
2018-12-17T23:18:57.967Z,439.80
2018-12-17T23:21:25.661Z,449.70
2018-12-17T23:23:53.380Z,465.43
2018-12-17T23:26:21.239Z,459.87
2018-12-17T23:28:48.904Z,469.27
2018-12-17T23:31:16.573Z,408.17
2018-12-17T23:33:44.344Z,424.23
2018-12-17T23:36:12.010Z,488.37
2018-12-17T23:38:39.669Z,527.73
2018-12-17T23:41:07.369Z,528.43
2018-12-17T23:43:35.075Z,508.90
2018-12-17T23:46:02.793Z,511.80
2018-12-17T23:48:30.513Z,543.20
2018-12-17T23:50:58.244Z,522.57
2018-12-17T23:53:26.128Z,555.27
2018-12-17T23:55:53.805Z,510.70
2018-12-17T23:58:21.479Z,502.13
